PANT METAR and TAF weather

Enter ICAO airport designator
Station Type Date Time Source
PANT METAR 2018/12/13 07:53 UTC NOAA

PANT 130753Z AUTO 18013G26KT 10SM BKN018 OVC023 05/04 A2914 RMK PK WND 17031/0717 RAB14E46 SLP871 P0001 T00500039 TSNO $ VIA AUTODIAL


Station Type Date Time Source
PANT Decoded METAR 2018/12/13 07:53 UTC NOAA

ANNETTE ISLAND AIRPORT, AK, United States (PANT) 55-02N 131-35W 34M
Dec 13, 2018 - 02:53 AM EST / 2018.12.13 0753 UTC
Wind: from the S (180 degrees) at 15 MPH (13 KT) gusting to 30 MPH (26 KT):0
Visibility: 10 mile(s):0
Sky conditions: overcast
Precipitation last hour: 0.01 inches
Temperature: 41.0 F (5.0 C)
Dew Point: 39.0 F (3.9 C)
Relative Humidity: 92%
Pressure (altimeter): 29.14 in. Hg (986 hPa)
ob: PANT 130753Z AUTO 18013G26KT 10SM BKN018 OVC023 05/04 A2914 RMK PK WND 17031/0717 RAB14E46 SLP871 P0001 T00500039 TSNO VIA AUTODIAL
cycle: 8

Station Type Date Time Source
PANT TAF UTC NOAA

Error!


Example: see airport list